createdAt,value
2017-09-06T00:00:22.718Z,4.60
2017-09-06T00:02:50.336Z,4.57
2017-09-06T00:05:17.910Z,4.17
2017-09-06T00:07:45.477Z,4.13
2017-09-06T00:10:13.163Z,5.17
2017-09-06T00:12:40.751Z,4.03
2017-09-06T00:15:08.314Z,4.13
2017-09-06T00:17:36.442Z,4.03
2017-09-06T00:20:04.002Z,4.30
2017-09-06T00:22:31.557Z,4.30
2017-09-06T00:24:59.166Z,4.20
2017-09-06T00:27:26.765Z,3.93
2017-09-06T00:29:54.350Z,4.10
2017-09-06T00:32:21.966Z,4.03
2017-09-06T00:34:49.603Z,3.97
2017-09-06T00:37:17.174Z,4.40
2017-09-06T00:39:44.766Z,4.27
2017-09-06T00:42:12.366Z,4.60
2017-09-06T00:44:40.734Z,4.80
2017-09-06T00:47:08.375Z,4.30
2017-09-06T00:49:35.966Z,4.70
2017-09-06T00:52:04.118Z,4.77
2017-09-06T00:54:32.598Z,5.27
2017-09-06T00:57:00.226Z,4.80
2017-09-06T00:59:27.883Z,4.97
2017-09-06T01:01:56.782Z,4.60
2017-09-06T01:04:24.462Z,5.50
2017-09-06T01:06:52.914Z,4.90
2017-09-06T01:09:20.593Z,4.67
2017-09-06T01:11:48.223Z,4.93
2017-09-06T01:14:15.826Z,4.73
2017-09-06T01:16:43.426Z,5.00
2017-09-06T01:19:11.078Z,4.60
2017-09-06T01:21:38.746Z,4.73
2017-09-06T01:24:06.422Z,4.87
2017-09-06T01:26:34.031Z,4.87
2017-09-06T01:29:01.651Z,5.00
2017-09-06T01:31:29.311Z,4.83
2017-09-06T01:33:56.939Z,4.80
2017-09-06T01:36:24.553Z,4.63
2017-09-06T01:38:52.164Z,5.20
2017-09-06T01:41:19.791Z,4.57
2017-09-06T01:43:47.402Z,4.87
2017-09-06T01:46:15.022Z,5.10
2017-09-06T01:48:42.618Z,5.10
2017-09-06T01:51:10.238Z,5.13
2017-09-06T01:53:37.862Z,5.13
2017-09-06T01:56:05.482Z,5.37
2017-09-06T01:58:33.071Z,5.30
2017-09-06T02:01:02.548Z,5.50
2017-09-06T02:03:33.297Z,5.40
2017-09-06T02:06:02.674Z,4.80
2017-09-06T02:08:31.062Z,5.70
2017-09-06T02:10:59.555Z,5.97
2017-09-06T02:13:29.051Z,5.23
2017-09-06T02:15:58.689Z,5.23
2017-09-06T02:18:26.469Z,5.63
2017-09-06T02:20:56.404Z,6.50
2017-09-06T02:23:24.398Z,5.10
2017-09-06T02:25:51.973Z,5.70
2017-09-06T02:28:19.538Z,5.70
2017-09-06T02:30:47.259Z,4.93
2017-09-06T02:33:14.856Z,5.53
2017-09-06T02:35:42.446Z,5.13
2017-09-06T02:38:10.042Z,6.03
2017-09-06T02:40:37.655Z,5.57
2017-09-06T02:43:05.278Z,5.30
2017-09-06T02:45:32.887Z,5.53
2017-09-06T02:48:00.482Z,4.70
2017-09-06T02:50:28.118Z,5.87
2017-09-06T02:52:55.774Z,6.10
2017-09-06T02:55:23.394Z,6.27
2017-09-06T02:57:50.958Z,6.40
2017-09-06T03:00:19.297Z,6.00
2017-09-06T03:02:46.955Z,6.40
2017-09-06T03:05:14.554Z,5.80
2017-09-06T03:07:42.198Z,6.37
2017-09-06T03:10:09.765Z,6.10
2017-09-06T03:12:37.350Z,5.70
2017-09-06T03:15:04.971Z,5.93
2017-09-06T03:17:32.570Z,5.90
2017-09-06T03:20:00.134Z,6.03
2017-09-06T03:22:28.659Z,6.83
2017-09-06T03:24:56.251Z,5.70
2017-09-06T03:27:23.843Z,6.60
2017-09-06T03:29:51.439Z,6.57
2017-09-06T03:32:19.044Z,6.03
2017-09-06T03:34:46.614Z,6.97
2017-09-06T03:37:14.207Z,6.97
2017-09-06T03:39:42.873Z,6.27
2017-09-06T03:42:10.482Z,6.63
2017-09-06T03:44:38.078Z,6.50
2017-09-06T03:47:05.674Z,6.60
2017-09-06T03:49:33.243Z,6.77
2017-09-06T03:52:00.833Z,7.10
2017-09-06T03:54:28.410Z,7.23
2017-09-06T03:56:55.974Z,6.70
2017-09-06T03:59:23.562Z,6.23
2017-09-06T04:01:51.151Z,6.67
2017-09-06T04:04:18.726Z,6.50
2017-09-06T04:06:46.354Z,6.47
2017-09-06T04:09:13.958Z,6.70
2017-09-06T04:11:41.525Z,6.07
2017-09-06T04:14:09.115Z,6.50
2017-09-06T04:16:36.723Z,7.00
2017-09-06T04:19:04.323Z,6.40
2017-09-06T04:21:31.946Z,6.43
2017-09-06T04:23:59.590Z,5.87
2017-09-06T04:26:27.150Z,6.43
2017-09-06T04:28:54.781Z,6.57
2017-09-06T04:31:22.354Z,7.60
2017-09-06T04:33:49.918Z,6.70
2017-09-06T04:36:17.514Z,6.13
2017-09-06T04:38:45.436Z,6.77
2017-09-06T04:41:13.036Z,6.70
2017-09-06T04:43:40.654Z,6.10
2017-09-06T04:46:08.243Z,7.03
2017-09-06T04:48:35.814Z,6.83
2017-09-06T04:51:03.410Z,6.50
2017-09-06T04:53:30.980Z,6.77
2017-09-06T04:55:58.577Z,6.53
2017-09-06T04:58:26.205Z,6.30
2017-09-06T05:00:53.770Z,7.23
2017-09-06T05:03:21.333Z,6.50
2017-09-06T05:05:48.926Z,6.93
2017-09-06T05:08:16.498Z,7.30
2017-09-06T05:10:44.096Z,7.90
2017-09-06T05:13:11.985Z,6.47
2017-09-06T05:15:39.550Z,6.37
2017-09-06T05:18:07.114Z,6.27
2017-09-06T05:20:34.810Z,6.37
2017-09-06T05:23:02.408Z,6.07
2017-09-06T05:25:30.722Z,6.13
2017-09-06T05:27:58.317Z,5.47
2017-09-06T05:30:25.887Z,5.27
2017-09-06T05:32:53.479Z,5.30
2017-09-06T05:35:21.075Z,5.27
2017-09-06T05:37:49.583Z,5.20
2017-09-06T05:40:17.223Z,5.37
2017-09-06T05:42:44.858Z,6.33
2017-09-06T05:45:12.447Z,5.40
2017-09-06T05:47:40.015Z,5.83
2017-09-06T05:50:09.222Z,5.57
2017-09-06T05:52:36.807Z,4.97
2017-09-06T05:55:04.399Z,4.60
2017-09-06T05:57:32.323Z,5.20
2017-09-06T05:59:59.900Z,14.07
2017-09-06T06:02:27.515Z,12.20
2017-09-06T06:04:55.138Z,7.93
2017-09-06T06:07:22.742Z,6.47
2017-09-06T06:09:50.343Z,6.10
2017-09-06T06:12:17.970Z,5.60
2017-09-06T06:14:45.542Z,6.80
2017-09-06T06:17:13.133Z,5.50
2017-09-06T06:19:40.726Z,5.40
2017-09-06T06:22:08.350Z,5.47
2017-09-06T06:24:35.938Z,5.57
2017-09-06T06:27:03.546Z,5.20
2017-09-06T06:29:31.135Z,4.43
2017-09-06T06:31:58.706Z,5.33
2017-09-06T06:34:26.302Z,5.13
2017-09-06T06:36:53.866Z,5.00
2017-09-06T06:39:21.430Z,5.20
2017-09-06T06:41:49.045Z,5.00
2017-09-06T06:44:16.642Z,4.50
2017-09-06T06:46:44.241Z,4.60
2017-09-06T06:49:11.842Z,4.90
2017-09-06T06:51:39.407Z,4.23
2017-09-06T06:54:07.020Z,4.07
2017-09-06T06:56:34.651Z,4.40
2017-09-06T06:59:02.218Z,5.27
2017-09-06T07:01:29.836Z,5.03
2017-09-06T07:03:57.463Z,5.53
2017-09-06T07:06:25.074Z,9.00
2017-09-06T07:08:52.646Z,6.50
2017-09-06T07:11:20.414Z,5.40
2017-09-06T07:13:48.015Z,5.70
2017-09-06T07:16:15.606Z,5.87
2017-09-06T07:18:43.677Z,5.47
2017-09-06T07:21:11.288Z,6.23
2017-09-06T07:23:38.895Z,5.90
2017-09-06T07:26:06.528Z,6.03
2017-09-06T07:28:34.102Z,5.20
2017-09-06T07:31:01.663Z,5.73
2017-09-06T07:33:29.410Z,6.83
2017-09-06T07:35:56.986Z,9.27
2017-09-06T07:38:24.555Z,7.73
2017-09-06T07:40:52.178Z,7.13
2017-09-06T07:43:19.771Z,5.47
2017-09-06T07:45:47.344Z,5.07
2017-09-06T07:48:15.011Z,5.57
2017-09-06T07:50:42.618Z,5.60
2017-09-06T07:53:10.226Z,7.37
2017-09-06T07:55:37.962Z,5.40
2017-09-06T07:58:05.531Z,6.27
2017-09-06T08:00:33.152Z,7.40
2017-09-06T08:03:00.831Z,5.83
2017-09-06T08:05:28.402Z,7.60
2017-09-06T08:08:01.506Z,6.17
2017-09-06T08:10:29.098Z,7.80
2017-09-06T08:12:56.667Z,7.00
2017-09-06T08:15:24.303Z,7.23
2017-09-06T08:17:51.902Z,7.60
2017-09-06T08:20:19.500Z,6.70
2017-09-06T08:22:47.170Z,8.70
2017-09-06T08:25:14.771Z,7.83
2017-09-06T08:27:42.342Z,7.27
2017-09-06T08:30:09.979Z,8.50
2017-09-06T08:32:37.558Z,7.70
2017-09-06T08:35:05.154Z,7.93
2017-09-06T08:37:32.783Z,8.17
2017-09-06T08:40:00.402Z,7.60
2017-09-06T08:42:28.002Z,8.00
2017-09-06T08:44:55.630Z,8.00
2017-09-06T08:47:23.223Z,8.57
2017-09-06T08:49:50.815Z,8.53
2017-09-06T08:52:18.439Z,8.73
2017-09-06T08:54:46.030Z,8.30
2017-09-06T08:57:13.602Z,8.13
2017-09-06T08:59:41.222Z,9.57
2017-09-06T09:02:08.819Z,8.73
2017-09-06T09:04:36.395Z,8.30
2017-09-06T09:07:03.991Z,8.83
2017-09-06T09:09:31.593Z,8.90
2017-09-06T09:11:59.162Z,8.70
2017-09-06T09:14:26.778Z,9.17
2017-09-06T09:16:54.377Z,9.40
2017-09-06T09:19:21.978Z,9.40
2017-09-06T09:21:49.575Z,8.40
2017-09-06T09:24:17.167Z,8.90
2017-09-06T09:26:44.766Z,8.97
2017-09-06T09:29:12.390Z,10.13
2017-09-06T09:31:39.968Z,9.33
2017-09-06T09:34:07.540Z,8.20
2017-09-06T09:36:35.162Z,8.90
2017-09-06T09:39:02.778Z,8.73
2017-09-06T09:41:30.370Z,9.00
2017-09-06T09:43:57.991Z,9.80
2017-09-06T09:46:25.570Z,9.27
2017-09-06T09:48:53.165Z,9.17
2017-09-06T09:51:20.806Z,8.53
2017-09-06T09:53:48.423Z,9.10
2017-09-06T09:56:16.015Z,9.23
2017-09-06T09:58:43.635Z,8.50
2017-09-06T10:01:11.206Z,8.60
2017-09-06T10:03:38.775Z,8.70
2017-09-06T10:06:06.398Z,10.17
2017-09-06T10:08:33.970Z,8.70
2017-09-06T10:11:01.572Z,9.17
2017-09-06T10:13:29.186Z,8.37
2017-09-06T10:15:56.810Z,8.67
2017-09-06T10:18:24.423Z,9.30
2017-09-06T10:20:52.135Z,8.20
2017-09-06T10:23:19.738Z,8.30
2017-09-06T10:25:47.338Z,8.90
2017-09-06T10:28:14.971Z,8.50
2017-09-06T10:30:42.573Z,8.33
2017-09-06T10:33:10.164Z,9.03
2017-09-06T10:35:37.762Z,8.23
2017-09-06T10:38:05.398Z,7.83
2017-09-06T10:40:32.974Z,8.27
2017-09-06T10:43:01.350Z,8.30
2017-09-06T10:45:28.923Z,7.80
2017-09-06T10:47:57.258Z,8.50
2017-09-06T10:50:24.879Z,8.90
2017-09-06T10:52:52.450Z,7.93
2017-09-06T10:55:20.044Z,7.60
2017-09-06T10:57:48.623Z,8.37
2017-09-06T11:00:16.222Z,8.57
2017-09-06T11:02:43.834Z,9.17
2017-09-06T11:05:11.475Z,8.03
2017-09-06T11:07:39.086Z,10.50
2017-09-06T11:10:06.682Z,9.00
2017-09-06T11:12:34.295Z,9.93
2017-09-06T11:15:01.871Z,10.30
2017-09-06T11:17:29.471Z,10.83
2017-09-06T11:19:57.074Z,11.07
2017-09-06T11:22:24.719Z,10.43
2017-09-06T11:24:52.290Z,12.63
2017-09-06T11:27:19.911Z,11.50
2017-09-06T11:29:47.516Z,12.03
2017-09-06T11:32:15.102Z,12.33
2017-09-06T11:34:43.020Z,11.57
2017-09-06T11:37:10.612Z,12.90
2017-09-06T11:39:38.204Z,12.17
2017-09-06T11:42:05.810Z,12.50
2017-09-06T11:44:33.403Z,12.70
2017-09-06T11:47:00.982Z,11.77
2017-09-06T11:49:28.606Z,10.93
2017-09-06T11:51:56.220Z,13.00
2017-09-06T11:54:23.820Z,12.20
2017-09-06T11:56:51.447Z,13.17
2017-09-06T11:59:20.058Z,12.20
2017-09-06T12:01:47.857Z,11.30
2017-09-06T12:04:15.485Z,11.13
2017-09-06T12:06:43.100Z,11.50
2017-09-06T12:09:10.699Z,12.57
2017-09-06T12:11:38.498Z,11.57
2017-09-06T12:14:06.067Z,11.00
2017-09-06T12:16:33.670Z,10.73
2017-09-06T12:19:02.226Z,10.83
2017-09-06T12:21:29.827Z,11.00
2017-09-06T12:23:57.394Z,9.80
2017-09-06T12:26:24.996Z,10.40
2017-09-06T12:28:52.571Z,12.00
2017-09-06T12:31:20.138Z,11.20
2017-09-06T12:33:47.738Z,11.00
2017-09-06T12:36:15.339Z,11.80
2017-09-06T12:38:42.939Z,12.73
2017-09-06T12:41:10.542Z,11.93
2017-09-06T12:43:38.111Z,11.23
2017-09-06T12:46:05.679Z,11.40
2017-09-06T12:48:33.305Z,11.40
2017-09-06T12:51:00.883Z,12.27
2017-09-06T12:53:28.595Z,10.93
2017-09-06T12:55:56.190Z,11.67
2017-09-06T12:58:23.773Z,11.87
2017-09-06T13:00:51.346Z,11.83
2017-09-06T13:03:18.942Z,11.93
2017-09-06T13:05:46.515Z,10.80
2017-09-06T13:08:14.131Z,11.90
2017-09-06T13:10:41.761Z,10.63
2017-09-06T13:13:09.371Z,11.10
2017-09-06T13:15:37.180Z,10.53
2017-09-06T13:18:04.786Z,11.37
2017-09-06T13:20:32.385Z,10.93
2017-09-06T13:22:59.987Z,10.83
2017-09-06T13:25:27.615Z,11.10
2017-09-06T13:27:55.231Z,11.27
2017-09-06T13:30:22.806Z,11.90
2017-09-06T13:32:50.402Z,11.10
2017-09-06T13:35:18.040Z,11.00
2017-09-06T13:37:45.619Z,10.73
2017-09-06T13:40:13.235Z,10.57
2017-09-06T13:42:41.566Z,10.77
2017-09-06T13:45:09.154Z,10.97
2017-09-06T13:47:37.315Z,11.00
2017-09-06T13:50:04.924Z,10.50
2017-09-06T13:52:32.534Z,10.40
2017-09-06T13:55:01.972Z,10.20
2017-09-06T13:57:29.610Z,10.17
2017-09-06T13:59:57.207Z,10.30
2017-09-06T14:02:24.848Z,10.90
2017-09-06T14:04:52.418Z,10.13
2017-09-06T14:07:20.051Z,10.13
2017-09-06T14:09:47.674Z,9.77
2017-09-06T14:12:15.275Z,9.13
2017-09-06T14:14:42.911Z,10.23
2017-09-06T14:17:10.539Z,10.70
2017-09-06T14:19:38.174Z,9.90
2017-09-06T14:22:05.974Z,9.50
2017-09-06T14:24:33.594Z,9.17
2017-09-06T14:27:01.198Z,10.00
2017-09-06T14:29:28.783Z,10.50
2017-09-06T14:31:56.407Z,10.37
2017-09-06T14:34:23.998Z,9.70
2017-09-06T14:36:51.659Z,9.53
2017-09-06T14:39:19.291Z,10.40
2017-09-06T14:41:46.863Z,10.13
2017-09-06T14:44:14.622Z,10.20
2017-09-06T14:46:42.223Z,9.10
2017-09-06T14:49:10.239Z,9.80
2017-09-06T14:51:38.027Z,9.10
2017-09-06T14:54:05.658Z,9.03
2017-09-06T14:56:33.236Z,8.63
2017-09-06T14:59:00.815Z,9.10
2017-09-06T15:01:28.459Z,9.17
2017-09-06T15:03:56.055Z,10.20
2017-09-06T15:06:23.671Z,9.10
2017-09-06T15:08:51.294Z,8.30
2017-09-06T15:11:19.753Z,7.67
2017-09-06T15:13:48.220Z,9.03
2017-09-06T15:16:15.839Z,8.00
2017-09-06T15:18:43.699Z,8.17
2017-09-06T15:21:11.859Z,7.37
2017-09-06T15:23:39.615Z,7.67
2017-09-06T15:26:07.216Z,8.10
2017-09-06T15:28:34.815Z,8.00
2017-09-06T15:31:02.442Z,7.60
2017-09-06T15:33:30.026Z,7.70
2017-09-06T15:35:57.623Z,7.13
2017-09-06T15:38:25.919Z,7.80
2017-09-06T15:40:53.814Z,7.20
2017-09-06T15:43:21.411Z,6.77
2017-09-06T15:45:49.006Z,7.10
2017-09-06T15:48:16.602Z,6.70
2017-09-06T15:50:44.195Z,7.30
2017-09-06T15:53:11.819Z,6.90
2017-09-06T15:55:39.395Z,7.10
2017-09-06T15:58:07.024Z,6.47
2017-09-06T16:00:34.796Z,6.03
2017-09-06T16:03:02.391Z,6.87
2017-09-06T16:05:29.961Z,6.23
2017-09-06T16:07:58.251Z,5.93
2017-09-06T16:10:25.823Z,6.93
2017-09-06T16:12:53.398Z,6.03
2017-09-06T16:15:21.026Z,5.17
2017-09-06T16:17:48.672Z,6.27
2017-09-06T16:20:16.270Z,6.03
2017-09-06T16:22:43.895Z,6.03
2017-09-06T16:25:11.562Z,6.37
2017-09-06T16:27:39.178Z,6.23
2017-09-06T16:30:06.811Z,6.30
2017-09-06T16:32:34.407Z,5.67
2017-09-06T16:35:01.982Z,5.57
2017-09-06T16:37:29.586Z,6.07
2017-09-06T16:39:57.154Z,6.30
2017-09-06T16:42:24.747Z,8.83
2017-09-06T16:44:52.375Z,9.83
2017-09-06T16:47:20.815Z,10.87
2017-09-06T16:49:48.419Z,10.87
2017-09-06T16:52:16.059Z,10.37
2017-09-06T16:54:43.651Z,9.20
2017-09-06T16:57:11.266Z,8.77
2017-09-06T16:59:38.971Z,7.40
2017-09-06T17:02:06.566Z,8.80
2017-09-06T17:04:34.170Z,7.40
2017-09-06T17:07:01.775Z,7.60
2017-09-06T17:09:41.162Z,7.70
2017-09-06T17:12:08.794Z,7.87
2017-09-06T17:14:36.918Z,7.67
2017-09-06T17:17:04.494Z,7.37
2017-09-06T17:19:32.460Z,7.20
2017-09-06T17:22:00.031Z,7.20
2017-09-06T17:24:27.602Z,6.60
2017-09-06T17:26:55.198Z,7.73
2017-09-06T17:29:22.799Z,7.00
2017-09-06T17:31:50.394Z,5.97
2017-09-06T17:34:18.330Z,6.47
2017-09-06T17:36:45.926Z,6.60
2017-09-06T17:39:13.528Z,6.33
2017-09-06T17:41:41.191Z,6.50
2017-09-06T17:44:08.795Z,6.23
2017-09-06T17:46:36.375Z,6.53
2017-09-06T17:49:03.999Z,6.70
2017-09-06T17:51:31.570Z,6.30
2017-09-06T17:53:59.175Z,6.77
2017-09-06T17:56:26.803Z,6.30
2017-09-06T17:58:54.374Z,6.30
2017-09-06T18:01:21.990Z,5.40
2017-09-06T18:03:49.615Z,5.77
2017-09-06T18:06:17.226Z,5.70
2017-09-06T18:08:44.823Z,6.20
2017-09-06T18:11:12.747Z,6.07
2017-09-06T18:13:40.318Z,5.80
2017-09-06T18:16:07.915Z,5.60
2017-09-06T18:18:35.554Z,5.83
2017-09-06T18:21:03.179Z,5.43
2017-09-06T18:23:30.780Z,6.40
2017-09-06T18:25:58.587Z,5.50
2017-09-06T18:28:26.193Z,5.80
2017-09-06T18:30:53.802Z,5.77
2017-09-06T18:33:21.407Z,5.97
2017-09-06T18:35:49.012Z,6.10
2017-09-06T18:38:16.625Z,5.50
2017-09-06T18:40:44.716Z,6.33
2017-09-06T18:43:12.319Z,5.53
2017-09-06T18:45:40.689Z,6.03
2017-09-06T18:48:08.316Z,4.83
2017-09-06T18:50:35.899Z,5.40
2017-09-06T18:53:03.467Z,4.80
2017-09-06T18:55:31.094Z,5.83
2017-09-06T18:57:58.694Z,5.40
2017-09-06T19:00:26.267Z,5.60
2017-09-06T19:02:53.932Z,6.17
2017-09-06T19:05:21.616Z,5.67
2017-09-06T19:07:49.220Z,5.50
2017-09-06T19:10:16.822Z,5.70
2017-09-06T19:12:44.419Z,5.30
2017-09-06T19:15:12.023Z,5.70
2017-09-06T19:17:39.655Z,5.00
2017-09-06T19:20:07.251Z,5.73
2017-09-06T19:22:34.830Z,6.43
2017-09-06T19:25:02.431Z,4.70
2017-09-06T19:27:30.027Z,5.57
2017-09-06T19:29:57.608Z,5.20
2017-09-06T19:32:25.222Z,4.77
2017-09-06T19:34:52.791Z,5.40
2017-09-06T19:37:21.063Z,5.17
2017-09-06T19:39:48.670Z,4.80
2017-09-06T19:42:16.592Z,4.97
2017-09-06T19:44:44.194Z,6.33
2017-09-06T19:47:11.818Z,4.60
2017-09-06T19:49:39.426Z,5.10
2017-09-06T19:52:07.732Z,4.90
2017-09-06T19:54:36.174Z,5.00
2017-09-06T19:57:03.739Z,5.60
2017-09-06T19:59:31.307Z,5.60
2017-09-06T20:01:59.612Z,5.10
2017-09-06T20:04:27.187Z,5.03
2017-09-06T20:06:55.516Z,4.63
2017-09-06T20:09:23.135Z,6.10
2017-09-06T20:11:51.451Z,5.37
2017-09-06T20:14:19.812Z,5.80
2017-09-06T20:16:48.046Z,5.20
2017-09-06T20:19:15.638Z,4.90
2017-09-06T20:21:43.216Z,4.70
2017-09-06T20:24:10.835Z,5.20
2017-09-06T20:26:38.437Z,5.03
2017-09-06T20:29:06.038Z,5.60
2017-09-06T20:31:33.667Z,4.70
2017-09-06T20:34:01.271Z,4.67
2017-09-06T20:36:28.880Z,5.90
2017-09-06T20:38:57.076Z,5.10
2017-09-06T20:41:24.701Z,4.43
2017-09-06T20:43:52.547Z,5.27
2017-09-06T20:46:20.167Z,4.30
2017-09-06T20:48:47.788Z,4.87
2017-09-06T20:51:15.436Z,4.90
2017-09-06T20:53:43.082Z,4.60
2017-09-06T20:56:25.149Z,4.77
2017-09-06T20:58:52.789Z,3.50
2017-09-06T21:01:21.123Z,3.77
2017-09-06T21:03:48.701Z,3.27
2017-09-06T21:06:16.350Z,3.47
2017-09-06T21:08:44.908Z,4.07
2017-09-06T21:11:12.794Z,3.50
2017-09-06T21:13:40.423Z,4.10
2017-09-06T21:16:09.834Z,3.27
2017-09-06T21:18:37.427Z,3.50
2017-09-06T21:21:05.055Z,2.87
2017-09-06T21:23:32.646Z,2.97
2017-09-06T21:26:00.241Z,3.30
2017-09-06T21:28:27.862Z,2.90
2017-09-06T21:30:55.440Z,2.67
2017-09-06T21:33:23.031Z,3.00
2017-09-06T21:35:50.635Z,2.60
2017-09-06T21:38:18.866Z,2.80
2017-09-06T21:40:46.462Z,2.53
2017-09-06T21:43:14.066Z,2.40
2017-09-06T21:45:41.635Z,2.73
2017-09-06T21:48:09.931Z,2.50
2017-09-06T21:50:37.891Z,2.60
2017-09-06T21:53:05.495Z,2.47
2017-09-06T21:55:33.069Z,2.63
2017-09-06T21:58:00.687Z,2.23
2017-09-06T22:00:28.799Z,2.10
2017-09-06T22:02:56.392Z,2.77
2017-09-06T22:05:24.015Z,2.20
2017-09-06T22:07:52.135Z,2.63
2017-09-06T22:10:20.151Z,2.43
2017-09-06T22:12:48.434Z,2.30
2017-09-06T22:15:16.519Z,2.33
2017-09-06T22:17:44.110Z,2.40
2017-09-06T22:20:12.016Z,3.37
2017-09-06T22:22:39.582Z,2.80
2017-09-06T22:25:07.947Z,3.13
2017-09-06T22:27:35.573Z,2.40
2017-09-06T22:30:03.911Z,2.10
2017-09-06T22:32:33.730Z,2.53
2017-09-06T22:35:01.878Z,2.80
2017-09-06T22:37:29.439Z,2.50
2017-09-06T22:39:57.027Z,2.47
2017-09-06T22:42:24.697Z,2.33
2017-09-06T22:44:52.262Z,2.53
2017-09-06T22:47:19.827Z,2.50
2017-09-06T22:49:47.434Z,2.80
2017-09-06T22:52:14.995Z,2.80
2017-09-06T22:54:42.559Z,2.70
2017-09-06T22:57:10.150Z,2.77
2017-09-06T22:59:37.715Z,2.50
2017-09-06T23:02:05.307Z,2.70
2017-09-06T23:04:35.416Z,2.60
2017-09-06T23:07:03.003Z,2.60
2017-09-06T23:09:30.603Z,2.43
2017-09-06T23:11:58.279Z,2.97
2017-09-06T23:14:25.852Z,2.23
2017-09-06T23:16:53.419Z,2.53
2017-09-06T23:19:21.034Z,2.47
2017-09-06T23:21:48.628Z,2.10
2017-09-06T23:24:16.198Z,2.83
2017-09-06T23:26:44.635Z,2.47
2017-09-06T23:29:12.206Z,2.30
2017-09-06T23:34:15.659Z,2.63
2017-09-06T23:36:43.222Z,2.57
2017-09-06T23:39:31.462Z,2.30
2017-09-06T23:41:59.035Z,2.47
2017-09-06T23:44:27.218Z,2.47
2017-09-06T23:46:54.843Z,2.57
2017-09-06T23:49:22.438Z,2.50
2017-09-06T23:51:50.015Z,2.30
2017-09-06T23:54:20.226Z,2.10
2017-09-06T23:56:47.782Z,2.10
2017-09-06T23:59:16.271Z,2.40
